Time;durP1;ratioP1;P1;durP2;ratioP2;P2;SDS_P1;SDS_P2;PMS_P1;PMS_P2;Temp;Humidity;BMP_temperature;BMP_pressure;BME280_temperature;BME280_humidity;BME280_pressure;Samples;Min_cycle;Max_cycle;Signal;HPM_P1;HPM_P2
2021/05/24 00:02:17;;;;;;;9.00;6.23;;;8.50;99.90;;;;;;5033088;28;20081;-73
2021/05/24 00:04:44;;;;;;;8.73;6.10;;;8.50;99.90;;;;;;5032416;28;20413;-73
2021/05/24 00:07:11;;;;;;;8.63;6.37;;;8.40;99.90;;;;;;5031777;28;20488;-73
2021/05/24 00:09:38;;;;;;;9.27;6.17;;;8.40;99.90;;;;;;5032302;28;20574;-73
2021/05/24 00:12:05;;;;;;;6.07;5.47;;;8.40;99.90;;;;;;5032663;28;20042;-72
2021/05/24 00:14:34;;;;;;;6.77;6.10;;;8.40;99.90;;;;;;5032281;28;20087;-73
2021/05/24 00:17:01;;;;;;;5.30;4.80;;;8.30;99.90;;;;;;5032392;28;20389;-72
2021/05/24 00:19:27;;;;;;;6.53;5.10;;;8.30;99.90;;;;;;5032277;28;20051;-72
2021/05/24 00:21:55;;;;;;;6.63;5.20;;;8.20;99.90;;;;;;5032301;28;20512;-73
2021/05/24 00:24:22;;;;;;;6.13;5.53;;;8.10;99.90;;;;;;5032137;28;20051;-72
2021/05/24 00:26:48;;;;;;;6.57;5.50;;;8.10;99.90;;;;;;5031522;28;20052;-73
2021/05/24 00:29:18;;;;;;;5.30;4.80;;;8.10;99.90;;;;;;5032050;28;20414;-72
2021/05/24 00:31:45;;;;;;;4.93;4.43;;;8.10;99.90;;;;;;5032603;28;20484;-72
2021/05/24 00:34:11;;;;;;;5.30;4.80;;;8.10;99.90;;;;;;5031889;28;20069;-73
2021/05/24 00:36:37;;;;;;;7.10;5.13;;;8.00;99.90;;;;;;5032546;28;20077;-74
2021/05/24 00:41:43;;;;;;;5.43;4.90;;;8.10;99.90;;;;;;5026353;23;20058;-72
2021/05/24 00:44:10;;;;;;;6.00;4.30;;;8.10;99.90;;;;;;5023286;28;20501;-71
2021/05/24 00:46:37;;;;;;;4.77;3.93;;;8.30;99.90;;;;;;5012922;28;20053;-72
2021/05/24 00:49:04;;;;;;;4.23;3.70;;;8.20;99.90;;;;;;5012688;28;20078;-73
2021/05/24 00:51:30;;;;;;;5.10;4.60;;;8.00;99.90;;;;;;5012374;28;20092;-73
2021/05/24 00:53:57;;;;;;;5.10;4.33;;;8.00;99.90;;;;;;5012758;28;20128;-73
2021/05/24 00:56:23;;;;;;;5.03;4.30;;;8.00;99.90;;;;;;5028910;28;20065;-73
2021/05/24 00:58:51;;;;;;;4.13;3.70;;;8.10;99.90;;;;;;5031837;28;20046;-73
2021/05/24 01:01:17;;;;;;;4.37;3.97;;;8.10;99.90;;;;;;5031721;28;20068;-72
2021/05/24 01:03:44;;;;;;;3.97;3.27;;;8.10;99.90;;;;;;5032006;28;20080;-73
2021/05/24 01:06:10;;;;;;;4.00;3.60;;;8.20;99.90;;;;;;5030193;28;20068;-73
2021/05/24 01:08:36;;;;;;;4.60;3.53;;;8.10;99.90;;;;;;5015770;28;20476;-72
2021/05/24 01:11:02;;;;;;;3.77;3.40;;;8.10;99.90;;;;;;5013677;28;20510;-73
2021/05/24 01:13:28;;;;;;;3.57;3.27;;;8.10;99.90;;;;;;5032576;28;20050;-74
2021/05/24 01:15:55;;;;;;;3.63;3.30;;;8.00;99.90;;;;;;5035808;28;20434;-73
2021/05/24 01:18:21;;;;;;;3.70;3.40;;;8.00;99.90;;;;;;5035285;28;20076;-73
2021/05/24 01:20:47;;;;;;;4.90;3.80;;;8.10;99.90;;;;;;5035642;28;20099;-73
2021/05/24 01:23:17;;;;;;;4.47;3.40;;;8.10;99.90;;;;;;5025462;28;20070;-74
2021/05/24 01:25:45;;;;;;;3.83;2.97;;;8.00;99.90;;;;;;5015628;28;20049;-73
2021/05/24 01:28:13;;;;;;;4.67;3.30;;;8.00;99.90;;;;;;5016803;28;20041;-73
2021/05/24 01:30:39;;;;;;;5.43;3.03;;;8.00;99.90;;;;;;5021360;28;20073;-73
2021/05/24 01:33:06;;;;;;;3.67;3.10;;;8.10;99.90;;;;;;5035105;28;20049;-73
2021/05/24 01:35:33;;;;;;;4.57;3.70;;;8.10;99.90;;;;;;5019703;28;20497;-74
2021/05/24 01:37:59;;;;;;;3.80;3.00;;;8.00;99.90;;;;;;5021655;28;20527;-74
2021/05/24 01:40:27;;;;;;;3.83;3.17;;;8.00;99.90;;;;;;5015805;28;20073;-72
2021/05/24 01:42:54;;;;;;;3.27;2.77;;;8.00;99.90;;;;;;5015768;28;20475;-72
2021/05/24 01:45:20;;;;;;;3.27;2.73;;;7.90;99.90;;;;;;5015702;28;20172;-72
2021/05/24 01:47:47;;;;;;;3.73;3.33;;;7.90;99.90;;;;;;5025976;28;20045;-72
2021/05/24 01:50:14;;;;;;;4.53;3.43;;;7.90;99.90;;;;;;5025219;28;20060;-73
2021/05/24 01:52:40;;;;;;;3.83;3.40;;;7.80;99.90;;;;;;5015856;28;20045;-72
2021/05/24 01:55:07;;;;;;;5.23;3.43;;;7.80;99.90;;;;;;5014990;28;20077;-73
2021/05/24 01:57:34;;;;;;;3.07;2.77;;;7.70;99.90;;;;;;5018755;28;20045;-73
2021/05/24 02:00:01;;;;;;;3.87;2.87;;;7.90;99.90;;;;;;5022285;28;20042;-73
2021/05/24 02:02:27;;;;;;;3.80;3.43;;;7.90;99.90;;;;;;5032902;28;20678;-72
2021/05/24 02:04:53;;;;;;;2.83;2.57;;;8.00;99.90;;;;;;5034992;28;20111;-73
2021/05/24 02:07:19;;;;;;;4.83;3.27;;;8.00;99.90;;;;;;5035381;28;20046;-72
2021/05/24 02:09:45;;;;;;;3.97;3.60;;;8.00;99.90;;;;;;5032996;28;20095;-73
2021/05/24 02:12:11;;;;;;;3.63;2.70;;;7.90;99.90;;;;;;5033479;28;20064;-73
2021/05/24 02:14:39;;;;;;;3.33;3.03;;;7.90;99.90;;;;;;5035076;28;20078;-73
2021/05/24 02:17:05;;;;;;;4.67;3.27;;;8.00;99.90;;;;;;5016841;28;20057;-72
2021/05/24 02:19:31;;;;;;;7.00;3.03;;;8.10;99.90;;;;;;5015421;28;20073;-72
2021/05/24 02:21:57;;;;;;;3.57;3.27;;;8.00;99.90;;;;;;5023098;28;20073;-73
2021/05/24 02:24:24;;;;;;;3.37;3.07;;;7.90;99.90;;;;;;5015512;28;20077;-72
2021/05/24 02:26:50;;;;;;;4.30;3.20;;;8.00;99.90;;;;;;5028704;28;20049;-72
2021/05/24 02:29:16;;;;;;;2.67;2.43;;;8.00;99.90;;;;;;5017139;28;20049;-72
2021/05/24 02:31:42;;;;;;;4.40;3.27;;;8.00;99.90;;;;;;5019752;28;20103;-72
2021/05/24 02:34:09;;;;;;;3.37;2.93;;;7.90;99.90;;;;;;5029612;28;20056;-72
2021/05/24 02:36:35;;;;;;;3.73;3.20;;;8.00;99.90;;;;;;5020378;28;20057;-73
2021/05/24 02:39:04;;;;;;;4.30;3.20;;;7.90;99.90;;;;;;5015792;28;20045;-72
2021/05/24 02:41:30;;;;;;;6.20;3.80;;;7.70;99.90;;;;;;5015681;28;20470;-72
2021/05/24 02:43:56;;;;;;;3.57;3.27;;;7.70;99.90;;;;;;5015585;28;20066;-72
2021/05/24 02:46:22;;;;;;;5.33;3.87;;;7.80;99.90;;;;;;5014824;28;20042;-73
2021/05/24 02:48:49;;;;;;;3.60;3.03;;;7.70;99.90;;;;;;5016390;28;20085;-72
2021/05/24 02:51:15;;;;;;;2.87;2.63;;;7.60;99.90;;;;;;5033847;28;20046;-72
2021/05/24 02:53:41;;;;;;;3.87;3.43;;;7.60;99.90;;;;;;5033474;28;20073;-72
2021/05/24 02:56:07;;;;;;;4.87;4.03;;;7.60;99.90;;;;;;5033371;28;20527;-72
2021/05/24 02:58:33;;;;;;;5.33;3.17;;;7.50;99.90;;;;;;5033372;28;20037;-73
2021/05/24 03:00:59;;;;;;;3.53;3.33;;;7.60;99.90;;;;;;5033772;28;20077;-72
2021/05/24 03:03:28;;;;;;;4.57;2.77;;;7.50;99.90;;;;;;5034074;28;20103;-73
2021/05/24 03:05:54;;;;;;;5.10;3.77;;;7.40;99.90;;;;;;5033674;28;20087;-74
2021/05/24 03:08:20;;;;;;;4.87;3.90;;;7.40;99.90;;;;;;5023105;28;20072;-74
2021/05/24 03:10:46;;;;;;;4.63;3.77;;;7.30;99.90;;;;;;5017068;28;20084;-74
2021/05/24 03:13:13;;;;;;;4.40;3.43;;;7.30;99.90;;;;;;5024041;28;20084;-73
2021/05/24 03:15:40;;;;;;;4.60;3.33;;;7.20;99.90;;;;;;5033505;28;20041;-73
2021/05/24 03:18:06;;;;;;;4.83;3.83;;;7.30;99.90;;;;;;5033197;28;20049;-73
2021/05/24 03:20:32;;;;;;;7.47;3.97;;;7.20;99.90;;;;;;5014494;28;20073;-72
2021/05/24 03:22:59;;;;;;;4.67;4.27;;;7.30;99.90;;;;;;5027872;28;20099;-74
2021/05/24 03:25:25;;;;;;;4.87;3.67;;;7.30;99.90;;;;;;5019645;28;20077;-73
2021/05/24 03:27:51;;;;;;;4.13;3.70;;;7.20;99.90;;;;;;5019142;28;20037;-73
2021/05/24 03:30:18;;;;;;;5.20;3.90;;;7.20;99.90;;;;;;5014099;28;20077;-73
2021/05/24 03:32:45;;;;;;;4.17;3.77;;;7.20;99.90;;;;;;5015006;28;20513;-73
2021/05/24 03:35:12;;;;;;;4.50;3.57;;;7.30;99.90;;;;;;5026523;28;20048;-73
2021/05/24 03:37:39;;;;;;;5.00;3.77;;;7.40;99.90;;;;;;5023986;28;20050;-74
2021/05/24 03:40:08;;;;;;;9.57;4.07;;;7.30;99.90;;;;;;5030362;28;20080;-73
2021/05/24 03:42:34;;;;;;;7.60;3.97;;;7.30;99.90;;;;;;5013466;28;20100;-73
2021/05/24 03:45:02;;;;;;;4.77;3.90;;;7.30;99.90;;;;;;5012958;28;20417;-73
2021/05/24 03:47:28;;;;;;;5.20;4.13;;;7.40;99.90;;;;;;5016595;28;20045;-73
2021/05/24 03:49:54;;;;;;;4.80;4.30;;;7.40;99.90;;;;;;5027163;28;20038;-73
2021/05/24 03:52:20;;;;;;;6.23;4.47;;;7.40;99.90;;;;;;5016279;28;20069;-73
2021/05/24 03:54:46;;;;;;;4.13;3.80;;;7.50;99.90;;;;;;5025992;28;20092;-73
2021/05/24 03:57:13;;;;;;;4.40;4.00;;;7.50;99.90;;;;;;5012878;28;20085;-73
2021/05/24 03:59:40;;;;;;;4.70;4.30;;;7.50;99.90;;;;;;5029126;28;20127;-73
2021/05/24 04:02:06;;;;;;;4.93;3.90;;;7.60;99.90;;;;;;5025176;28;20056;-73
2021/05/24 04:04:32;;;;;;;9.23;5.17;;;7.60;99.90;;;;;;5032663;28;20076;-73
2021/05/24 04:07:00;;;;;;;4.67;4.17;;;7.70;99.90;;;;;;5032452;28;20069;-73
2021/05/24 04:09:26;;;;;;;5.03;3.60;;;7.80;99.90;;;;;;5029765;28;20049;-73
2021/05/24 04:11:53;;;;;;;6.03;4.67;;;7.90;99.90;;;;;;5032760;28;20052;-73
2021/05/24 04:14:20;;;;;;;5.00;3.60;;;8.00;99.90;;;;;;5022581;28;20115;-73
2021/05/24 04:16:46;;;;;;;6.40;4.30;;;8.20;99.90;;;;;;5012815;28;20042;-73
2021/05/24 04:19:13;;;;;;;4.23;3.50;;;8.20;99.90;;;;;;5012441;28;20045;-73
2021/05/24 04:21:40;;;;;;;5.70;4.03;;;8.30;99.90;;;;;;5012934;28;20547;-73
2021/05/24 04:24:07;;;;;;;3.33;3.03;;;8.40;99.90;;;;;;5017011;28;20462;-73
2021/05/24 04:26:34;;;;;;;4.17;3.77;;;8.40;99.90;;;;;;5029706;28;20517;-73
2021/05/24 04:29:00;;;;;;;5.10;3.27;;;8.50;99.90;;;;;;5021489;28;20191;-73
2021/05/24 04:31:27;;;;;;;4.20;3.35;;;8.70;99.90;;;;;;5029050;28;20089;-73
2021/05/24 04:33:53;;;;;;;4.25;3.67;;;8.80;99.90;;;;;;5027972;28;20073;-73
2021/05/24 04:36:19;;;;;;;4.83;4.07;;;9.00;99.90;;;;;;5026396;28;20422;-72
2021/05/24 04:38:45;;;;;;;3.97;3.30;;;9.00;99.90;;;;;;5011909;28;20042;-74
2021/05/24 04:41:11;;;;;;;3.78;3.45;;;9.10;99.90;;;;;;4994278;28;533072;-73
2021/05/24 04:43:40;;;;;;;3.83;3.50;;;9.20;99.90;;;;;;5016931;28;20501;-73
2021/05/24 04:46:06;;;;;;;4.70;3.45;;;9.20;99.90;;;;;;5015957;28;20108;-73
2021/05/24 04:48:34;;;;;;;4.18;3.03;;;9.30;99.90;;;;;;5035603;28;20073;-73
2021/05/24 04:51:00;;;;;;;3.80;3.40;;;9.40;99.90;;;;;;5019758;28;20128;-73
2021/05/24 04:53:26;;;;;;;3.65;2.72;;;9.60;99.90;;;;;;5025138;28;20049;-72
2021/05/24 04:55:52;;;;;;;4.10;3.35;;;9.60;99.90;;;;;;5033613;28;20049;-72
2021/05/24 04:58:19;;;;;;;3.70;2.95;;;9.70;99.90;;;;;;5034931;28;20068;-73
2021/05/24 05:00:47;;;;;;;5.75;2.50;;;9.70;99.90;;;;;;5021822;28;20045;-72
2021/05/24 05:03:13;;;;;;;3.38;3.08;;;9.90;99.90;;;;;;5018694;28;20084;-73
2021/05/24 05:05:41;;;;;;;3.03;2.78;;;9.90;99.90;;;;;;5032753;28;20051;-73
2021/05/24 05:08:07;;;;;;;3.38;2.65;;;10.00;99.90;;;;;;5035966;28;20041;-72
2021/05/24 05:10:33;;;;;;;2.47;2.28;;;10.20;99.90;;;;;;5023394;28;20080;-74
2021/05/24 05:12:59;;;;;;;3.42;3.17;;;10.30;99.90;;;;;;5016320;28;20077;-73
2021/05/24 05:15:26;;;;;;;3.50;2.45;;;10.40;99.90;;;;;;5016769;28;20069;-73
2021/05/24 05:17:52;;;;;;;2.17;1.98;;;10.50;99.90;;;;;;5016515;28;20065;-73
2021/05/24 05:20:18;;;;;;;2.78;2.50;;;10.60;99.90;;;;;;5016679;28;20074;-73
2021/05/24 05:22:45;;;;;;;3.67;2.50;;;10.70;99.90;;;;;;5027649;28;20304;-73
2021/05/24 05:25:11;;;;;;;2.10;2.00;;;10.80;99.90;;;;;;5034897;28;20547;-74
2021/05/24 05:27:38;;;;;;;3.40;2.80;;;10.90;99.90;;;;;;5035305;28;20099;-73
2021/05/24 05:30:06;;;;;;;3.00;2.30;;;10.90;99.90;;;;;;5035873;28;20088;-72
2021/05/24 05:32:32;;;;;;;2.67;2.45;;;11.10;99.90;;;;;;5035973;28;20083;-73
2021/05/24 05:34:58;;;;;;;2.60;2.40;;;11.20;99.90;;;;;;5028360;28;20096;-73
2021/05/24 05:37:24;;;;;;;3.05;2.58;;;11.30;99.90;;;;;;5015689;28;20050;-72
2021/05/24 05:39:55;;;;;;;2.72;2.53;;;11.40;99.90;;;;;;5016176;28;20050;-72
2021/05/24 05:42:21;;;;;;;3.00;2.75;;;11.50;99.90;;;;;;5015670;28;20485;-73
2021/05/24 05:44:47;;;;;;;2.70;2.50;;;11.60;99.90;;;;;;5024965;28;20374;-73
2021/05/24 05:47:13;;;;;;;3.20;2.88;;;11.80;99.90;;;;;;5015003;28;20057;-73
2021/05/24 05:49:39;;;;;;;2.70;2.50;;;11.80;99.90;;;;;;5030148;28;20069;-73
2021/05/24 05:52:06;;;;;;;3.65;2.90;;;12.00;99.90;;;;;;5026124;28;20046;-72
2021/05/24 05:54:32;;;;;;;3.42;2.40;;;12.20;99.90;;;;;;5025492;28;21477;-73
2021/05/24 05:56:59;;;;;;;3.65;2.10;;;12.30;99.90;;;;;;5033801;28;20088;-73
2021/05/24 05:59:25;;;;;;;2.15;1.95;;;12.40;99.90;;;;;;5034420;28;20370;-73
2021/05/24 06:01:51;;;;;;;2.72;1.77;;;12.60;99.90;;;;;;5024591;28;20073;-72
2021/05/24 06:04:17;;;;;;;3.08;2.30;;;12.60;99.90;;;;;;5016812;28;20053;-73
2021/05/24 06:06:43;;;;;;;2.38;2.17;;;12.80;99.90;;;;;;5015744;28;20053;-73
2021/05/24 06:09:10;;;;;;;2.80;2.00;;;13.10;99.90;;;;;;5014717;28;20077;-73
2021/05/24 06:11:36;;;;;;;2.97;2.78;;;13.40;99.90;;;;;;5015141;28;20050;-73
2021/05/24 06:14:03;;;;;;;4.88;1.73;;;13.80;99.90;;;;;;5015159;28;20080;-73
2021/05/24 06:16:29;;;;;;;2.13;1.92;;;13.80;99.90;;;;;;5014648;28;20088;-73
2021/05/24 06:18:55;;;;;;;1.90;1.80;;;13.90;99.90;;;;;;5017446;28;20074;-73
2021/05/24 06:21:21;;;;;;;2.03;1.85;;;14.10;99.90;;;;;;5034647;28;20481;-71
2021/05/24 06:23:47;;;;;;;5.13;2.17;;;14.40;99.90;;;;;;5034976;28;20551;-69
2021/05/24 06:26:13;;;;;;;2.45;1.80;;;14.50;99.90;;;;;;5031579;28;20085;-72
2021/05/24 06:28:39;;;;;;;3.75;2.00;;;15.00;99.90;;;;;;5016065;28;20497;-73
2021/05/24 06:31:06;;;;;;;3.25;1.63;;;14.90;99.90;;;;;;5023652;28;20065;-73
2021/05/24 06:33:32;;;;;;;2.15;1.58;;;15.10;99.90;;;;;;5030076;28;20523;-74
2021/05/24 06:35:58;;;;;;;2.38;2.17;;;15.30;99.90;;;;;;5018506;28;20070;-74
2021/05/24 06:38:24;;;;;;;1.75;1.50;;;15.60;99.90;;;;;;5033372;28;20072;-74
2021/05/24 06:40:51;;;;;;;1.70;1.52;;;15.80;99.90;;;;;;5015924;28;20049;-74
2021/05/24 06:43:17;;;;;;;2.85;1.60;;;15.80;99.90;;;;;;5015341;28;20512;-74
2021/05/24 06:45:43;;;;;;;1.42;1.33;;;15.80;99.90;;;;;;5013801;28;20053;-75
2021/05/24 06:48:10;;;;;;;2.25;1.88;;;16.00;99.90;;;;;;5030653;28;20088;-72
2021/05/24 06:50:36;;;;;;;2.42;1.40;;;16.60;99.90;;;;;;5015298;28;20457;-73
2021/05/24 06:53:02;;;;;;;2.15;1.30;;;17.10;99.90;;;;;;5014810;28;20073;-69
2021/05/24 06:55:28;;;;;;;0.95;0.95;;;17.40;99.50;;;;;;5013846;28;20077;-72
2021/05/24 06:57:54;;;;;;;2.45;1.45;;;17.10;97.90;;;;;;5013848;28;20475;-72
2021/05/24 07:00:20;;;;;;;2.92;1.15;;;17.10;97.30;;;;;;5016074;28;20046;-69
2021/05/24 07:02:48;;;;;;;1.60;1.50;;;17.10;96.80;;;;;;5026949;28;20080;-75
2021/05/24 07:05:15;;;;;;;1.30;1.20;;;17.20;96.70;;;;;;5028392;28;20060;-75
2021/05/24 07:07:41;;;;;;;1.77;1.55;;;17.10;95.60;;;;;;5016683;28;20142;-70
2021/05/24 07:10:09;;;;;;;1.45;1.00;;;17.30;95.70;;;;;;5013228;28;20042;-73
2021/05/24 07:12:35;;;;;;;1.20;1.10;;;17.50;94.60;;;;;;5013535;28;20477;-72
2021/05/24 07:15:03;;;;;;;1.40;1.30;;;17.60;94.90;;;;;;5026153;28;20076;-71
2021/05/24 07:17:29;;;;;;;2.13;1.38;;;18.10;93.70;;;;;;5035388;28;20045;-71
2021/05/24 07:19:55;;;;;;;3.47;2.67;;;18.60;92.40;;;;;;5033633;28;20084;-71
2021/05/24 07:22:23;;;;;;;1.10;0.90;;;18.60;91.50;;;;;;5033509;28;20077;-72
2021/05/24 07:24:49;;;;;;;1.00;1.00;;;18.20;92.00;;;;;;5032952;28;20091;-72
2021/05/24 07:27:15;;;;;;;2.58;2.00;;;18.30;92.60;;;;;;5032656;28;20367;-73
2021/05/24 07:29:41;;;;;;;1.55;0.88;;;18.90;91.60;;;;;;5028577;28;20437;-74
2021/05/24 07:32:10;;;;;;;2.67;1.30;;;19.00;84.80;;;;;;5018879;28;20098;-74
2021/05/24 07:34:36;;;;;;;0.82;0.80;;;18.50;85.50;;;;;;5033229;28;20464;-73
2021/05/24 07:37:03;;;;;;;0.68;0.68;;;18.70;85.90;;;;;;5022712;28;20046;-74
2021/05/24 07:39:30;;;;;;;1.17;0.70;;;18.70;83.00;;;;;;5027781;28;20073;-74
2021/05/24 07:41:59;;;;;;;1.80;0.93;;;19.00;82.20;;;;;;5023332;28;20076;-74
2021/05/24 07:44:25;;;;;;;1.10;0.57;;;19.40;81.20;;;;;;5016257;28;20046;-74
2021/05/24 07:46:51;;;;;;;1.63;0.85;;;19.30;78.10;;;;;;5012663;28;20078;-73
2021/05/24 07:49:18;;;;;;;0.70;0.70;;;19.20;78.90;;;;;;5012557;28;20073;-72
2021/05/24 07:51:44;;;;;;;0.82;0.82;;;19.80;76.50;;;;;;5026180;28;20045;-73
2021/05/24 07:54:10;;;;;;;2.55;1.00;;;20.00;75.10;;;;;;5022946;28;20057;-73
2021/05/24 07:56:37;;;;;;;1.48;0.77;;;20.00;74.80;;;;;;5011948;28;20129;-73
2021/05/24 07:59:04;;;;;;;0.80;0.80;;;20.80;75.50;;;;;;5012478;28;20069;-72
2021/05/24 08:01:31;;;;;;;0.50;0.50;;;20.50;72.70;;;;;;5020076;28;20117;-71
2021/05/24 08:03:57;;;;;;;0.80;0.80;;;20.20;69.60;;;;;;5022952;28;20076;-73
2021/05/24 08:06:23;;;;;;;0.80;0.77;;;20.50;70.90;;;;;;5031480;28;20430;-73
2021/05/24 08:08:50;;;;;;;2.22;0.80;;;20.40;69.30;;;;;;5019382;28;20137;-74
2021/05/24 08:11:16;;;;;;;1.30;0.75;;;20.50;70.80;;;;;;5012984;28;20046;-71
2021/05/24 08:13:43;;;;;;;3.20;1.90;;;20.70;69.40;;;;;;5020655;28;20049;-72
2021/05/24 08:16:10;;;;;;;1.75;1.02;;;20.90;70.40;;;;;;5016075;28;20076;-72
2021/05/24 08:18:36;;;;;;;1.20;1.15;;;21.70;69.10;;;;;;5014759;28;20085;-72
2021/05/24 08:21:04;;;;;;;1.23;1.13;;;21.80;66.70;;;;;;5012539;28;20096;-71
2021/05/24 08:23:30;;;;;;;2.08;0.70;;;21.70;64.50;;;;;;5022807;28;20041;-73
2021/05/24 08:25:56;;;;;;;3.33;1.73;;;21.50;63.30;;;;;;5031419;28;20073;-72
2021/05/24 08:28:22;;;;;;;1.35;0.90;;;21.60;62.80;;;;;;5032026;28;20053;-74
2021/05/24 08:30:49;;;;;;;1.67;1.23;;;22.20;63.00;;;;;;5029863;28;20052;-71
2021/05/24 08:33:15;;;;;;;1.27;0.70;;;22.20;61.80;;;;;;5024904;28;20072;-72
2021/05/24 08:35:41;;;;;;;4.50;0.75;;;21.50;60.50;;;;;;5027678;28;20497;-71
2021/05/24 08:38:07;;;;;;;2.28;1.33;;;20.70;61.00;;;;;;5022876;28;20139;-71
2021/05/24 08:40:33;;;;;;;3.55;0.85;;;20.30;60.70;;;;;;5014079;28;20108;-70
2021/05/24 08:43:00;;;;;;;1.02;0.60;;;20.50;61.40;;;;;;5013111;28;20517;-71
2021/05/24 08:45:29;;;;;;;0.65;0.63;;;20.80;62.00;;;;;;5017512;28;20050;-75
2021/05/24 08:47:56;;;;;;;1.27;0.70;;;20.60;60.60;;;;;;5012607;28;20069;-73
2021/05/24 08:50:23;;;;;;;0.93;0.85;;;20.80;60.50;;;;;;5017165;28;20121;-74
2021/05/24 08:52:49;;;;;;;0.60;0.50;;;21.30;59.60;;;;;;5012422;28;20073;-74
2021/05/24 08:55:16;;;;;;;1.90;1.63;;;21.50;58.90;;;;;;5017206;28;20045;-74
2021/05/24 08:57:43;;;;;;;3.00;1.73;;;20.90;60.40;;;;;;5019261;28;20137;-74
2021/05/24 09:00:12;;;;;;;0.70;0.70;;;20.50;62.70;;;;;;5020467;28;20057;-76
2021/05/24 09:02:38;;;;;;;1.30;0.90;;;21.10;60.20;;;;;;5012462;28;20060;-75
2021/05/24 09:05:09;;;;;;;0.80;0.45;;;21.50;59.40;;;;;;5012658;28;20057;-74
2021/05/24 09:07:47;;;;;;;0.55;0.50;;;22.30;59.00;;;;;;5013238;28;20046;-76
2021/05/24 09:10:14;;;;;;;1.05;0.38;;;22.40;56.00;;;;;;5025525;28;20474;-73
2021/05/24 09:12:40;;;;;;;2.17;0.65;;;22.30;56.30;;;;;;5011883;28;20050;-71
2021/05/24 09:15:11;;;;;;;1.80;0.88;;;21.00;58.40;;;;;;5024092;28;20077;-72
2021/05/24 09:17:45;;;;;;;1.40;0.60;;;20.30;60.80;;;;;;5015564;28;20104;-74
2021/05/24 09:20:31;;;;;;;0.88;0.60;;;20.00;62.00;;;;;;5012187;28;20042;-73
2021/05/24 09:23:15;;;;;;;3.00;0.60;;;19.80;63.10;;;;;;5013556;28;20045;-71
2021/05/24 09:25:51;;;;;;;1.17;0.75;;;20.00;62.60;;;;;;5024378;28;20095;-71
2021/05/24 09:28:29;;;;;;;0.50;0.50;;;20.70;60.80;;;;;;5031814;28;20498;-72
2021/05/24 09:30:56;;;;;;;1.75;0.40;;;21.50;59.40;;;;;;5032173;28;20548;-72
2021/05/24 09:33:22;;;;;;;0.65;0.60;;;22.00;58.40;;;;;;5032308;28;20065;-72
2021/05/24 09:35:51;;;;;;;0.40;0.40;;;22.00;57.40;;;;;;5025528;28;20065;-72
2021/05/24 09:38:18;;;;;;;0.85;0.50;;;21.50;58.00;;;;;;5017245;28;20066;-73
2021/05/24 09:40:52;;;;;;;0.93;0.52;;;21.40;59.00;;;;;;5015364;28;20410;-74
2021/05/24 09:43:18;;;;;;;2.53;0.80;;;21.00;59.20;;;;;;5015808;28;20061;-73
2021/05/24 09:45:44;;;;;;;1.00;0.57;;;20.60;61.10;;;;;;5015513;28;20092;-74
2021/05/24 09:48:10;;;;;;;0.70;0.70;;;20.30;61.10;;;;;;5015425;28;20046;-74
2021/05/24 09:50:36;;;;;;;0.95;0.68;;;20.20;62.10;;;;;;5015341;28;20077;-72
2021/05/24 09:53:04;;;;;;;0.50;0.50;;;20.20;62.30;;;;;;5015163;28;20503;-77
2021/05/24 09:55:30;;;;;;;0.75;0.73;;;20.20;60.90;;;;;;5015038;28;20072;-74
2021/05/24 09:57:57;;;;;;;0.68;0.50;;;20.00;61.30;;;;;;5015572;28;20053;-74
2021/05/24 10:00:28;;;;;;;1.42;0.88;;;20.10;61.80;;;;;;5016656;28;20042;-74
2021/05/24 10:02:56;;;;;;;1.45;0.80;;;20.50;63.10;;;;;;5015272;28;20053;-72
2021/05/24 10:05:36;;;;;;;0.82;0.80;;;20.40;61.50;;;;;;5022813;28;20052;-73
2021/05/24 10:08:04;;;;;;;1.55;0.70;;;20.30;61.80;;;;;;5026071;28;20069;-73
2021/05/24 10:10:30;;;;;;;2.25;0.80;;;20.10;63.20;;;;;;5033624;28;20470;-72
2021/05/24 10:12:58;;;;;;;1.67;0.73;;;20.10;63.40;;;;;;5034626;28;20489;-72
2021/05/24 10:15:24;;;;;;;0.77;0.77;;;19.80;62.10;;;;;;5033906;28;20076;-72
2021/05/24 10:17:57;;;;;;;1.73;0.57;;;20.00;63.70;;;;;;5034218;28;20486;-73
2021/05/24 10:20:23;;;;;;;1.17;0.90;;;20.90;61.80;;;;;;5034313;28;20057;-72
2021/05/24 10:22:50;;;;;;;0.77;0.77;;;21.20;61.20;;;;;;5034113;28;20457;-73
2021/05/24 10:25:18;;;;;;;0.60;0.60;;;21.00;60.80;;;;;;5034105;28;20481;-72
2021/05/24 10:27:44;;;;;;;0.73;0.60;;;20.80;62.00;;;;;;5038547;28;20096;-72
2021/05/24 10:30:12;;;;;;;0.73;0.65;;;20.70;60.90;;;;;;5030561;28;20425;-72
2021/05/24 10:32:52;;;;;;;1.85;0.60;;;20.40;61.80;;;;;;5019172;28;20046;-73
2021/05/24 10:35:31;;;;;;;1.10;0.77;;;20.20;60.30;;;;;;5029523;28;20393;-73
2021/05/24 10:37:57;;;;;;;0.60;0.50;;;20.50;60.20;;;;;;5015727;28;20050;-72
2021/05/24 10:40:24;;;;;;;0.60;0.60;;;20.50;58.30;;;;;;5014325;28;20053;-72
2021/05/24 10:43:04;;;;;;;1.02;0.68;;;20.40;57.70;;;;;;5016468;28;20049;-72
2021/05/24 10:45:30;;;;;;;1.40;0.70;;;20.70;58.70;;;;;;5016273;28;20085;-71
2021/05/24 10:47:58;;;;;;;0.60;0.60;;;20.60;58.80;;;;;;5014274;28;20074;-71
2021/05/24 10:50:25;;;;;;;1.17;0.60;;;20.70;60.10;;;;;;5025443;28;20045;-72
2021/05/24 10:52:55;;;;;;;0.40;0.40;;;21.00;58.00;;;;;;5036925;28;20056;-72
2021/05/24 10:55:37;;;;;;;0.50;0.40;;;21.20;57.20;;;;;;5033871;28;20045;-72
2021/05/24 10:58:05;;;;;;;0.60;0.43;;;21.40;56.30;;;;;;5034099;28;20049;-73
2021/05/24 11:00:50;;;;;;;0.55;0.55;;;21.80;56.70;;;;;;5024398;28;20079;-72
2021/05/24 11:03:16;;;;;;;0.88;0.52;;;21.80;56.20;;;;;;5033418;28;20128;-73
2021/05/24 11:05:47;;;;;;;0.70;0.60;;;22.10;54.50;;;;;;5033399;28;20045;-72
2021/05/24 11:08:24;;;;;;;0.52;0.50;;;22.10;53.10;;;;;;5033185;28;20103;-72
2021/05/24 11:10:53;;;;;;;0.40;0.40;;;22.40;53.40;;;;;;5033562;28;20100;-72
2021/05/24 11:13:21;;;;;;;0.77;0.50;;;22.90;52.90;;;;;;5033341;28;20084;-73
2021/05/24 11:15:48;;;;;;;0.45;0.45;;;23.00;51.20;;;;;;5028883;28;20598;-72
2021/05/24 11:18:27;;;;;;;0.55;0.55;;;22.10;50.80;;;;;;5013400;28;20470;-73
2021/05/24 11:20:58;;;;;;;1.10;0.52;;;22.50;50.50;;;;;;5013728;28;20054;-73
2021/05/24 11:23:32;;;;;;;0.40;0.40;;;22.40;51.90;;;;;;5013745;28;20050;-72
2021/05/24 11:26:29;;;;;;;0.60;0.60;;;21.60;53.60;;;;;;5013326;28;20050;-72
2021/05/24 11:28:59;;;;;;;0.82;0.60;;;21.60;54.90;;;;;;5013416;28;20095;-73
2021/05/24 11:31:29;;;;;;;0.40;0.40;;;21.60;55.80;;;;;;5024351;28;20038;-72
2021/05/24 11:33:57;;;;;;;1.75;0.73;;;22.10;53.90;;;;;;5014631;28;20085;-72
2021/05/24 11:36:48;;;;;;;0.75;0.52;;;22.80;52.90;;;;;;5014240;28;20202;-72
2021/05/24 11:39:16;;;;;;;0.50;0.50;;;22.00;52.00;;;;;;5013071;28;20513;-72
2021/05/24 11:41:45;;;;;;;0.80;0.52;;;20.90;54.70;;;;;;5013048;28;20046;-72
2021/05/24 11:44:12;;;;;;;0.52;0.40;;;21.20;55.40;;;;;;5018082;28;20042;-72
2021/05/24 11:46:43;;;;;;;0.45;0.40;;;22.10;53.80;;;;;;5027512;28;20393;-72
2021/05/24 11:49:10;;;;;;;1.00;0.57;;;21.70;53.30;;;;;;5016304;28;20041;-72
2021/05/24 11:51:37;;;;;;;1.00;0.50;;;21.60;54.30;;;;;;5013026;28;20073;-72
2021/05/24 11:54:06;;;;;;;0.35;0.35;;;21.50;54.40;;;;;;5012612;28;20140;-72
2021/05/24 11:56:37;;;;;;;1.65;0.70;;;21.70;53.80;;;;;;5021916;28;20041;-72
2021/05/24 11:59:06;;;;;;;0.50;0.50;;;22.20;52.80;;;;;;5032277;28;20048;-72
2021/05/24 12:01:32;;;;;;;0.50;0.50;;;21.80;53.00;;;;;;5032724;28;20041;-72
2021/05/24 12:03:58;;;;;;;2.05;0.70;;;21.60;54.80;;;;;;5032442;28;20077;-73
2021/05/24 12:06:25;;;;;;;1.80;0.52;;;22.60;52.40;;;;;;5031828;28;20417;-73
2021/05/24 12:08:51;;;;;;;0.30;0.30;;;23.40;51.40;;;;;;5014962;28;20042;-73
2021/05/24 12:11:18;;;;;;;1.55;0.40;;;23.00;50.00;;;;;;5012758;28;20077;-72
2021/05/24 12:14:04;;;;;;;2.17;0.93;;;22.20;50.90;;;;;;5012778;28;20196;-72
2021/05/24 12:16:31;;;;;;;0.73;0.30;;;21.40;52.40;;;;;;5012470;28;20266;-72
2021/05/24 12:19:01;;;;;;;0.60;0.60;;;21.80;52.20;;;;;;5018693;28;20049;-72
2021/05/24 12:21:34;;;;;;;0.55;0.55;;;21.90;52.50;;;;;;5032327;28;20140;-73
2021/05/24 12:24:01;;;;;;;0.50;0.50;;;21.20;53.60;;;;;;5032142;28;20042;-72
2021/05/24 12:26:28;;;;;;;0.95;0.65;;;20.70;54.10;;;;;;5031636;28;20504;-72
2021/05/24 12:28:54;;;;;;;1.77;0.40;;;20.90;54.50;;;;;;5032117;28;20081;-72
2021/05/24 12:31:21;;;;;;;0.40;0.32;;;21.20;53.80;;;;;;5031636;28;20104;-72
2021/05/24 12:33:48;;;;;;;0.90;0.50;;;20.90;53.70;;;;;;5031905;28;20068;-72
2021/05/24 12:36:18;;;;;;;0.73;0.65;;;21.20;53.80;;;;;;5025598;28;20084;-73
2021/05/24 12:38:47;;;;;;;2.35;0.55;;;21.30;53.10;;;;;;5029241;28;20103;-72
2021/05/24 12:41:15;;;;;;;0.68;0.40;;;21.80;51.20;;;;;;5020661;28;20081;-73
2021/05/24 12:43:52;;;;;;;0.70;0.70;;;22.30;50.50;;;;;;5032642;28;20057;-72
2021/05/24 12:46:20;;;;;;;0.82;0.60;;;22.50;50.90;;;;;;5013972;28;20057;-72
2021/05/24 12:48:51;;;;;;;1.52;0.50;;;23.20;50.50;;;;;;5012166;28;20049;-72
2021/05/24 12:51:19;;;;;;;0.73;0.52;;;23.80;49.20;;;;;;5018556;28;20046;-72
2021/05/24 12:53:52;;;;;;;1.30;0.63;;;23.80;48.50;;;;;;5031828;28;20425;-71
2021/05/24 12:56:18;;;;;;;0.85;0.85;;;23.80;48.40;;;;;;5023659;28;20497;-72